sensor_id;sensor_type;location;lat;lon;timestamp;pressure;altitude;pressure_sealevel;temperature;humidity
52361;BME280;38294;42.966;1.608;2023-03-22T03:38:18;97012.28;;;6.37;98.45
52361;BME280;38294;42.966;1.608;2023-03-22T03:40:54;97009.50;;;6.58;96.12
52361;BME280;38294;42.966;1.608;2023-03-22T03:43:22;97010.53;;;6.65;95.90
52361;BME280;38294;42.966;1.608;2023-03-22T03:45:50;97009.84;;;6.93;94.80
52361;BME280;38294;42.966;1.608;2023-03-22T03:48:37;97007.59;;;6.95;93.56
52361;BME280;38294;42.966;1.608;2023-03-22T03:51:03;97014.97;;;6.94;91.64
52361;BME280;38294;42.966;1.608;2023-03-22T03:53:30;97020.63;;;7.01;90.34
52361;BME280;38294;42.966;1.608;2023-03-22T03:55:55;97022.69;;;7.04;90.31
52361;BME280;38294;42.966;1.608;2023-03-22T03:58:21;97026.31;;;6.84;91.23
52361;BME280;38294;42.966;1.608;2023-03-22T04:00:47;97031.50;;;7.01;90.66
52361;BME280;38294;42.966;1.608;2023-03-22T04:03:13;97035.72;;;6.99;90.67
52361;BME280;38294;42.966;1.608;2023-03-22T04:05:39;97027.53;;;6.86;90.80
52361;BME280;38294;42.966;1.608;2023-03-22T04:08:05;97037.28;;;6.75;89.90
52361;BME280;38294;42.966;1.608;2023-03-22T04:10:31;97037.97;;;6.72;89.43
52361;BME280;38294;42.966;1.608;2023-03-22T04:12:57;97040.81;;;6.76;88.68
52361;BME280;38294;42.966;1.608;2023-03-22T04:15:22;97040.34;;;6.62;89.00
52361;BME280;38294;42.966;1.608;2023-03-22T04:17:49;97036.84;;;6.73;88.92
52361;BME280;38294;42.966;1.608;2023-03-22T04:20:15;97031.88;;;6.88;88.85
52361;BME280;38294;42.966;1.608;2023-03-22T04:22:42;97028.47;;;6.78;88.19
52361;BME280;38294;42.966;1.608;2023-03-22T04:25:10;97025.19;;;6.97;88.60
52361;BME280;38294;42.966;1.608;2023-03-22T04:27:38;97023.13;;;6.94;88.73
52361;BME280;38294;42.966;1.608;2023-03-22T04:30:06;97019.16;;;6.79;89.21
52361;BME280;38294;42.966;1.608;2023-03-22T04:32:34;97024.81;;;6.62;88.77
52361;BME280;38294;42.966;1.608;2023-03-22T04:35:00;97018.34;;;6.67;89.62
52361;BME280;38294;42.966;1.608;2023-03-22T04:37:25;97023.47;;;6.80;88.60
52361;BME280;38294;42.966;1.608;2023-03-22T04:39:52;97028.78;;;6.89;88.63
52361;BME280;38294;42.966;1.608;2023-03-22T04:42:17;97025.63;;;6.87;89.19
52361;BME280;38294;42.966;1.608;2023-03-22T04:44:43;97022.53;;;6.88;88.95
52361;BME280;38294;42.966;1.608;2023-03-22T04:47:08;97013.81;;;6.83;89.86
52361;BME280;38294;42.966;1.608;2023-03-22T04:49:34;97013.03;;;6.95;90.50
52361;BME280;38294;42.966;1.608;2023-03-22T04:51:59;97022.66;;;6.92;89.04
52361;BME280;38294;42.966;1.608;2023-03-22T04:54:25;97030.50;;;6.81;87.21
52361;BME280;38294;42.966;1.608;2023-03-22T04:56:51;97032.63;;;6.76;87.53
52361;BME280;38294;42.966;1.608;2023-03-22T04:59:17;97036.59;;;6.66;87.55
52361;BME280;38294;42.966;1.608;2023-03-22T05:01:47;97039.91;;;6.72;88.35
52361;BME280;38294;42.966;1.608;2023-03-22T05:04:14;97035.78;;;6.66;88.87
52361;BME280;38294;42.966;1.608;2023-03-22T05:06:39;97031.16;;;6.66;89.17
52361;BME280;38294;42.966;1.608;2023-03-22T05:09:05;97023.00;;;6.66;89.07
52361;BME280;38294;42.966;1.608;2023-03-22T05:11:31;97025.75;;;6.78;88.63
52361;BME280;38294;42.966;1.608;2023-03-22T05:13:56;97017.91;;;6.89;87.84
52361;BME280;38294;42.966;1.608;2023-03-22T05:16:23;97014.84;;;6.91;87.18
52361;BME280;38294;42.966;1.608;2023-03-22T05:18:49;97016.34;;;6.88;87.77
52361;BME280;38294;42.966;1.608;2023-03-22T05:21:20;97014.72;;;6.99;87.96
52361;BME280;38294;42.966;1.608;2023-03-22T05:23:57;97010.53;;;7.02;88.63
52361;BME280;38294;42.966;1.608;2023-03-22T05:26:26;97004.50;;;6.96;88.59
52361;BME280;38294;42.966;1.608;2023-03-22T05:28:53;97008.59;;;6.90;88.28
52361;BME280;38294;42.966;1.608;2023-03-22T05:31:19;97012.91;;;6.79;87.21
52361;BME280;38294;42.966;1.608;2023-03-22T05:33:49;97013.81;;;6.71;87.20
52361;BME280;38294;42.966;1.608;2023-03-22T05:36:20;97007.56;;;6.82;86.88
52361;BME280;38294;42.966;1.608;2023-03-22T05:38:47;97017.22;;;6.68;86.80
52361;BME280;38294;42.966;1.608;2023-03-22T05:41:13;97021.75;;;6.64;87.17
52361;BME280;38294;42.966;1.608;2023-03-22T05:43:39;97020.50;;;6.73;87.07
52361;BME280;38294;42.966;1.608;2023-03-22T05:46:09;97030.28;;;6.86;88.55
52361;BME280;38294;42.966;1.608;2023-03-22T05:48:36;97029.72;;;6.81;88.01
52361;BME280;38294;42.966;1.608;2023-03-22T05:51:05;97029.47;;;6.98;86.80
52361;BME280;38294;42.966;1.608;2023-03-22T05:53:31;97031.38;;;6.73;85.75
52361;BME280;38294;42.966;1.608;2023-03-22T05:55:57;97030.56;;;6.49;85.80
52361;BME280;38294;42.966;1.608;2023-03-22T05:58:29;97036.72;;;6.70;85.39
52361;BME280;38294;42.966;1.608;2023-03-22T06:00:57;97033.31;;;6.73;86.09
52361;BME280;38294;42.966;1.608;2023-03-22T06:03:26;97031.63;;;6.80;86.83
52361;BME280;38294;42.966;1.608;2023-03-22T06:05:51;97030.16;;;6.83;86.67
52361;BME280;38294;42.966;1.608;2023-03-22T06:08:19;97031.28;;;7.06;85.38
52361;BME280;38294;42.966;1.608;2023-03-22T06:10:50;97038.09;;;7.24;85.12
52361;BME280;38294;42.966;1.608;2023-03-22T06:13:19;97038.41;;;7.35;84.71
52361;BME280;38294;42.966;1.608;2023-03-22T06:15:45;97030.94;;;7.32;84.43
52361;BME280;38294;42.966;1.608;2023-03-22T06:18:11;97036.81;;;7.46;83.76
52361;BME280;38294;42.966;1.608;2023-03-22T06:20:38;97033.75;;;7.48;83.23
52361;BME280;38294;42.966;1.608;2023-03-22T06:23:04;97028.50;;;7.55;83.14
52361;BME280;38294;42.966;1.608;2023-03-22T06:25:30;97040.00;;;7.48;82.08
52361;BME280;38294;42.966;1.608;2023-03-22T06:27:56;97037.88;;;7.29;82.80
52361;BME280;38294;42.966;1.608;2023-03-22T06:30:22;97039.19;;;7.48;82.75
52361;BME280;38294;42.966;1.608;2023-03-22T06:32:47;97047.38;;;7.48;82.78
52361;BME280;38294;42.966;1.608;2023-03-22T06:35:13;97032.16;;;8.14;80.00
52361;BME280;38294;42.966;1.608;2023-03-22T06:37:39;97027.84;;;8.41;78.91
52361;BME280;38294;42.966;1.608;2023-03-22T06:40:05;97031.81;;;8.43;77.92
52361;BME280;38294;42.966;1.608;2023-03-22T06:42:31;97032.25;;;8.18;77.93
52361;BME280;38294;42.966;1.608;2023-03-22T06:44:58;97036.09;;;8.01;77.06
52361;BME280;38294;42.966;1.608;2023-03-22T06:47:23;97046.16;;;7.73;77.66
52361;BME280;38294;42.966;1.608;2023-03-22T06:49:49;97049.63;;;7.58;79.35
52361;BME280;38294;42.966;1.608;2023-03-22T06:52:15;97050.63;;;7.65;80.65
52361;BME280;38294;42.966;1.608;2023-03-22T06:54:40;97043.53;;;8.16;78.92
52361;BME280;38294;42.966;1.608;2023-03-22T06:57:06;97042.19;;;8.38;78.30
52361;BME280;38294;42.966;1.608;2023-03-22T06:59:31;97041.00;;;8.51;77.24
52361;BME280;38294;42.966;1.608;2023-03-22T07:01:57;97044.97;;;8.69;76.43
52361;BME280;38294;42.966;1.608;2023-03-22T07:04:22;97039.53;;;9.01;75.53
52361;BME280;38294;42.966;1.608;2023-03-22T07:06:49;97044.53;;;8.83;76.02
52361;BME280;38294;42.966;1.608;2023-03-22T07:09:15;97029.03;;;8.87;76.77
52361;BME280;38294;42.966;1.608;2023-03-22T07:11:40;97032.38;;;8.96;75.91
52361;BME280;38294;42.966;1.608;2023-03-22T07:14:06;97038.38;;;8.86;77.28
52361;BME280;38294;42.966;1.608;2023-03-22T07:16:32;97031.91;;;9.25;75.63
52361;BME280;38294;42.966;1.608;2023-03-22T07:18:57;97031.03;;;9.21;76.71
52361;BME280;38294;42.966;1.608;2023-03-22T07:21:23;97031.03;;;9.37;76.08
52361;BME280;38294;42.966;1.608;2023-03-22T07:23:48;97034.09;;;9.35;76.47
52361;BME280;38294;42.966;1.608;2023-03-22T07:26:14;97037.88;;;9.46;75.48
52361;BME280;38294;42.966;1.608;2023-03-22T07:28:40;97046.75;;;9.59;75.41
52361;BME280;38294;42.966;1.608;2023-03-22T07:31:09;97039.81;;;10.00;74.33
52361;BME280;38294;42.966;1.608;2023-03-22T07:33:37;97040.44;;;10.51;72.25
52361;BME280;38294;42.966;1.608;2023-03-22T07:36:04;97045.00;;;10.85;71.25
52361;BME280;38294;42.966;1.608;2023-03-22T07:38:29;97040.41;;;11.16;68.21
52361;BME280;38294;42.966;1.608;2023-03-22T07:40:55;97041.81;;;11.06;67.78
52361;BME280;38294;42.966;1.608;2023-03-22T07:43:21;97034.56;;;10.94;68.90
52361;BME280;38294;42.966;1.608;2023-03-22T07:45:50;97041.53;;;11.11;69.06
52361;BME280;38294;42.966;1.608;2023-03-22T07:48:17;97036.09;;;11.15;68.58
52361;BME280;38294;42.966;1.608;2023-03-22T07:50:43;97040.69;;;11.33;67.58
52361;BME280;38294;42.966;1.608;2023-03-22T07:53:09;97024.97;;;11.56;66.70
52361;BME280;38294;42.966;1.608;2023-03-22T07:55:35;97034.78;;;11.84;65.58
52361;BME280;38294;42.966;1.608;2023-03-22T07:58:01;97027.38;;;12.18;64.30
52361;BME280;38294;42.966;1.608;2023-03-22T08:00:27;97025.31;;;12.44;63.36
52361;BME280;38294;42.966;1.608;2023-03-22T08:02:54;97025.81;;;12.53;63.11
52361;BME280;38294;42.966;1.608;2023-03-22T08:05:20;97014.38;;;12.48;62.45
52361;BME280;38294;42.966;1.608;2023-03-22T08:07:47;97025.28;;;12.78;62.15
52361;BME280;38294;42.966;1.608;2023-03-22T08:10:13;97017.22;;;13.02;61.18
52361;BME280;38294;42.966;1.608;2023-03-22T08:12:38;97026.00;;;13.15;60.10
52361;BME280;38294;42.966;1.608;2023-03-22T08:15:04;97018.31;;;13.35;59.23
52361;BME280;38294;42.966;1.608;2023-03-22T08:17:30;97012.47;;;13.40;58.62
52361;BME280;38294;42.966;1.608;2023-03-22T08:19:56;97013.03;;;13.63;57.95
52361;BME280;38294;42.966;1.608;2023-03-22T08:22:22;97007.34;;;14.07;57.78
52361;BME280;38294;42.966;1.608;2023-03-22T08:24:51;97001.97;;;14.42;57.45
52361;BME280;38294;42.966;1.608;2023-03-22T08:27:17;97006.34;;;14.47;57.15
52361;BME280;38294;42.966;1.608;2023-03-22T08:29:44;97011.72;;;14.26;57.72
52361;BME280;38294;42.966;1.608;2023-03-22T08:32:10;97004.38;;;14.58;57.00
52361;BME280;38294;42.966;1.608;2023-03-22T08:34:40;97002.78;;;14.60;57.09
52361;BME280;38294;42.966;1.608;2023-03-22T08:37:06;96998.06;;;14.47;56.66
52361;BME280;38294;42.966;1.608;2023-03-22T08:39:33;97001.25;;;14.66;56.00
52361;BME280;38294;42.966;1.608;2023-03-22T08:41:58;97003.66;;;14.89;55.45
52361;BME280;38294;42.966;1.608;2023-03-22T08:44:24;97004.44;;;14.97;54.84
52361;BME280;38294;42.966;1.608;2023-03-22T08:46:50;97004.84;;;15.27;54.71
52361;BME280;38294;42.966;1.608;2023-03-22T08:49:16;96994.94;;;15.72;53.44
52361;BME280;38294;42.966;1.608;2023-03-22T08:51:41;97002.31;;;16.14;51.85
52361;BME280;38294;42.966;1.608;2023-03-22T08:54:07;96999.56;;;16.03;51.59
52361;BME280;38294;42.966;1.608;2023-03-22T08:56:33;96992.97;;;15.83;52.40
52361;BME280;38294;42.966;1.608;2023-03-22T08:59:06;96999.03;;;16.40;51.66
52361;BME280;38294;42.966;1.608;2023-03-22T09:01:33;96995.44;;;16.47;51.25
52361;BME280;38294;42.966;1.608;2023-03-22T09:03:59;96996.63;;;16.46;50.50
52361;BME280;38294;42.966;1.608;2023-03-22T09:06:25;96990.41;;;16.97;49.74
52361;BME280;38294;42.966;1.608;2023-03-22T09:08:51;96983.63;;;17.05;49.26
52361;BME280;38294;42.966;1.608;2023-03-22T09:11:18;96990.78;;;17.47;48.45
52361;BME280;38294;42.966;1.608;2023-03-22T09:13:44;96984.38;;;17.60;47.65
52361;BME280;38294;42.966;1.608;2023-03-22T09:16:10;96981.78;;;17.36;48.06
52361;BME280;38294;42.966;1.608;2023-03-22T09:18:37;96976.56;;;18.19;46.94
52361;BME280;38294;42.966;1.608;2023-03-22T09:21:04;96972.72;;;18.40;46.10
52361;BME280;38294;42.966;1.608;2023-03-22T09:23:32;96973.47;;;18.44;45.41
52361;BME280;38294;42.966;1.608;2023-03-22T09:26:03;96964.72;;;18.76;44.97
52361;BME280;38294;42.966;1.608;2023-03-22T09:28:29;96962.28;;;19.05;43.82
52361;BME280;38294;42.966;1.608;2023-03-22T09:31:02;96956.97;;;19.41;43.46
52361;BME280;38294;42.966;1.608;2023-03-22T09:33:28;96961.44;;;19.77;41.60
52361;BME280;38294;42.966;1.608;2023-03-22T09:35:54;96952.63;;;19.82;40.72
52361;BME280;38294;42.966;1.608;2023-03-22T09:38:21;96950.34;;;19.97;40.63
52361;BME280;38294;42.966;1.608;2023-03-22T09:41:45;96943.84;;;20.43;38.67
52361;BME280;38294;42.966;1.608;2023-03-22T09:43:52;96940.22;;;20.62;38.10
52361;BME280;38294;42.966;1.608;2023-03-22T09:46:28;96935.94;;;20.93;37.64
52361;BME280;38294;42.966;1.608;2023-03-22T09:48:56;96923.81;;;20.68;38.05
52361;BME280;38294;42.966;1.608;2023-03-22T09:51:50;96919.72;;;20.88;38.04
52361;BME280;38294;42.966;1.608;2023-03-22T09:54:29;96920.75;;;20.62;38.63
52361;BME280;38294;42.966;1.608;2023-03-22T09:59:32;96927.38;;;20.84;37.84
52361;BME280;38294;42.966;1.608;2023-03-22T10:10:39;96924.47;;;21.69;35.14
52361;BME280;38294;42.966;1.608;2023-03-22T10:13:24;96912.59;;;20.87;36.86
52361;BME280;38294;42.966;1.608;2023-03-22T10:15:57;96919.59;;;21.28;36.04
52361;BME280;38294;42.966;1.608;2023-03-22T10:18:34;96920.28;;;21.32;35.55
52361;BME280;38294;42.966;1.608;2023-03-22T10:21:07;96923.13;;;21.44;34.88
52361;BME280;38294;42.966;1.608;2023-03-22T10:23:46;96916.28;;;21.17;34.64
52361;BME280;38294;42.966;1.608;2023-03-22T10:26:20;96915.03;;;21.02;34.53
52361;BME280;38294;42.966;1.608;2023-03-22T10:29:03;96919.66;;;21.08;33.77
52361;BME280;38294;42.966;1.608;2023-03-22T10:31:32;96916.81;;;21.12;34.17
52361;BME280;38294;42.966;1.608;2023-03-22T10:34:05;96928.44;;;21.23;32.27
52361;BME280;38294;42.966;1.608;2023-03-22T10:36:33;96922.22;;;21.19;31.97
52361;BME280;38294;42.966;1.608;2023-03-22T10:41:45;96939.84;;;21.61;31.33
52361;BME280;38294;42.966;1.608;2023-03-22T10:44:15;96930.19;;;22.35;30.42
52361;BME280;38294;42.966;1.608;2023-03-22T10:46:43;96938.19;;;21.92;30.38
52361;BME280;38294;42.966;1.608;2023-03-22T10:49:18;96928.94;;;22.49;29.43
52361;BME280;38294;42.966;1.608;2023-03-22T10:51:51;96934.03;;;23.05;28.30
52361;BME280;38294;42.966;1.608;2023-03-22T10:54:19;96939.63;;;22.92;27.71
52361;BME280;38294;42.966;1.608;2023-03-22T10:56:46;96938.38;;;22.55;26.59
52361;BME280;38294;42.966;1.608;2023-03-22T11:00:04;96939.97;;;22.94;26.36
52361;BME280;38294;42.966;1.608;2023-03-22T11:02:31;96926.63;;;23.23;27.05
52361;BME280;38294;42.966;1.608;2023-03-22T11:04:59;96940.72;;;23.07;27.32
52361;BME280;38294;42.966;1.608;2023-03-22T11:10:11;96940.56;;;23.61;26.01
52361;BME280;38294;42.966;1.608;2023-03-22T11:12:42;96936.38;;;23.66;24.97
52361;BME280;38294;42.966;1.608;2023-03-22T11:15:32;96937.41;;;24.37;24.84
52361;BME280;38294;42.966;1.608;2023-03-22T11:18:21;96938.41;;;24.21;25.65
52361;BME280;38294;42.966;1.608;2023-03-22T11:21:08;96938.31;;;23.56;26.14
52361;BME280;38294;42.966;1.608;2023-03-22T11:23:47;96935.66;;;23.40;25.37
52361;BME280;38294;42.966;1.608;2023-03-22T11:26:25;96935.53;;;23.56;24.23
52361;BME280;38294;42.966;1.608;2023-03-22T11:28:50;96938.13;;;23.50;24.18
52361;BME280;38294;42.966;1.608;2023-03-22T11:31:18;96932.00;;;23.77;24.50
52361;BME280;38294;42.966;1.608;2023-03-22T11:33:58;96940.56;;;23.61;24.01
52361;BME280;38294;42.966;1.608;2023-03-22T11:36:25;96942.59;;;23.48;23.42
52361;BME280;38294;42.966;1.608;2023-03-22T11:38:59;96944.28;;;23.80;22.39
52361;BME280;38294;42.966;1.608;2023-03-22T11:41:27;96937.69;;;23.52;22.84
52361;BME280;38294;42.966;1.608;2023-03-22T11:44:00;96937.06;;;23.91;21.81
52361;BME280;38294;42.966;1.608;2023-03-22T11:46:28;96931.19;;;23.55;22.08
52361;BME280;38294;42.966;1.608;2023-03-22T11:48:59;96933.28;;;23.85;20.93
52361;BME280;38294;42.966;1.608;2023-03-22T11:51:28;96925.88;;;24.56;20.23
52361;BME280;38294;42.966;1.608;2023-03-22T11:54:09;96932.38;;;24.23;22.00
52361;BME280;38294;42.966;1.608;2023-03-22T11:56:40;96915.63;;;24.32;21.21
52361;BME280;38294;42.966;1.608;2023-03-22T12:04:06;96905.97;;;24.11;20.74
52361;BME280;38294;42.966;1.608;2023-03-22T12:06:37;96909.63;;;23.77;20.28
52361;BME280;38294;42.966;1.608;2023-03-22T12:09:12;96903.25;;;23.98;20.61
52361;BME280;38294;42.966;1.608;2023-03-22T12:11:46;96903.97;;;24.12;20.38
52361;BME280;38294;42.966;1.608;2023-03-22T12:14:32;96903.00;;;23.84;20.41
52361;BME280;38294;42.966;1.608;2023-03-22T12:17:06;96899.47;;;24.36;20.53
52361;BME280;38294;42.966;1.608;2023-03-22T12:22:34;96892.53;;;24.19;20.24
52361;BME280;38294;42.966;1.608;2023-03-22T12:25:00;96883.59;;;24.33;21.05
52361;BME280;38294;42.966;1.608;2023-03-22T12:27:34;96870.41;;;24.12;21.66
52361;BME280;38294;42.966;1.608;2023-03-22T12:30:16;96874.47;;;24.41;21.38
52361;BME280;38294;42.966;1.608;2023-03-22T12:35:25;96862.66;;;24.16;21.22
52361;BME280;38294;42.966;1.608;2023-03-22T12:37:55;96853.84;;;24.26;21.42
52361;BME280;38294;42.966;1.608;2023-03-22T12:40:28;96852.72;;;24.24;21.15
52361;BME280;38294;42.966;1.608;2023-03-22T12:43:08;96859.38;;;24.39;20.80
52361;BME280;38294;42.966;1.608;2023-03-22T12:45:42;96850.22;;;24.17;20.17
52361;BME280;38294;42.966;1.608;2023-03-22T12:48:44;96843.38;;;24.48;19.94
52361;BME280;38294;42.966;1.608;2023-03-22T12:51:12;96850.28;;;23.82;21.18
52361;BME280;38294;42.966;1.608;2023-03-22T12:53:42;96840.72;;;24.14;21.01
52361;BME280;38294;42.966;1.608;2023-03-22T12:56:11;96834.25;;;24.66;20.91
52361;BME280;38294;42.966;1.608;2023-03-22T12:58:37;96831.22;;;24.42;20.46
52361;BME280;38294;42.966;1.608;2023-03-22T13:01:28;96825.34;;;25.07;20.38
52361;BME280;38294;42.966;1.608;2023-03-22T13:03:55;96827.41;;;24.27;20.62
52361;BME280;38294;42.966;1.608;2023-03-22T13:06:56;96816.44;;;24.42;20.15
52361;BME280;38294;42.966;1.608;2023-03-22T13:15:27;96808.75;;;24.64;21.87
52361;BME280;38294;42.966;1.608;2023-03-22T13:17:48;96788.03;;;24.62;21.57
52361;BME280;38294;42.966;1.608;2023-03-22T13:27:54;96785.50;;;25.13;21.00
52361;BME280;38294;42.966;1.608;2023-03-22T13:30:50;96784.41;;;25.46;20.45
52361;BME280;38294;42.966;1.608;2023-03-22T13:33:31;96771.19;;;25.56;20.07
52361;BME280;38294;42.966;1.608;2023-03-22T13:36:21;96763.38;;;25.69;19.95
52361;BME280;38294;42.966;1.608;2023-03-22T13:38:58;96759.16;;;25.46;20.46
52361;BME280;38294;42.966;1.608;2023-03-22T13:41:32;96743.44;;;25.31;21.04
52361;BME280;38294;42.966;1.608;2023-03-22T13:44:01;96745.00;;;25.04;20.94
52361;BME280;38294;42.966;1.608;2023-03-22T13:46:50;96746.91;;;25.17;21.54
52361;BME280;38294;42.966;1.608;2023-03-22T13:49:47;96743.00;;;25.23;21.11
52361;BME280;38294;42.966;1.608;2023-03-22T13:52:44;96736.28;;;24.93;21.76
52361;BME280;38294;42.966;1.608;2023-03-22T13:55:35;96733.97;;;25.10;22.08
52361;BME280;38294;42.966;1.608;2023-03-22T13:58:01;96732.75;;;24.44;23.42
52361;BME280;38294;42.966;1.608;2023-03-22T14:03:23;96726.19;;;24.38;23.69
52361;BME280;38294;42.966;1.608;2023-03-22T14:06:09;96729.75;;;24.29;24.24
52361;BME280;38294;42.966;1.608;2023-03-22T14:08:36;96733.19;;;24.33;24.45
52361;BME280;38294;42.966;1.608;2023-03-22T14:11:35;96719.00;;;24.86;24.23
52361;BME280;38294;42.966;1.608;2023-03-22T14:14:08;96721.13;;;24.64;24.56
52361;BME280;38294;42.966;1.608;2023-03-22T14:16:48;96726.22;;;24.47;25.20
52361;BME280;38294;42.966;1.608;2023-03-22T14:19:21;96718.44;;;24.33;25.55
52361;BME280;38294;42.966;1.608;2023-03-22T14:21:52;96715.03;;;24.07;25.87
52361;BME280;38294;42.966;1.608;2023-03-22T14:24:21;96712.19;;;24.29;25.84
52361;BME280;38294;42.966;1.608;2023-03-22T14:26:52;96710.47;;;24.22;25.77
52361;BME280;38294;42.966;1.608;2023-03-22T14:29:20;96704.75;;;24.44;25.50
52361;BME280;38294;42.966;1.608;2023-03-22T14:32:03;96706.47;;;24.50;25.39
52361;BME280;38294;42.966;1.608;2023-03-22T14:34:31;96711.16;;;24.53;25.34
52361;BME280;38294;42.966;1.608;2023-03-22T14:37:00;96699.16;;;24.62;25.33
52361;BME280;38294;42.966;1.608;2023-03-22T14:39:39;96688.75;;;24.63;25.11
52361;BME280;38294;42.966;1.608;2023-03-22T14:44:42;96694.53;;;24.68;25.07
52361;BME280;38294;42.966;1.608;2023-03-22T14:47:23;96687.66;;;24.69;24.88
52361;BME280;38294;42.966;1.608;2023-03-22T14:49:57;96685.16;;;25.44;23.53
52361;BME280;38294;42.966;1.608;2023-03-22T14:52:30;96679.25;;;24.78;24.49
52361;BME280;38294;42.966;1.608;2023-03-22T14:54:59;96675.28;;;24.97;24.50
52361;BME280;38294;42.966;1.608;2023-03-22T14:57:28;96669.13;;;24.53;25.04
52361;BME280;38294;42.966;1.608;2023-03-22T14:59:55;96680.03;;;24.79;25.04
52361;BME280;38294;42.966;1.608;2023-03-22T15:04:52;96673.22;;;24.03;25.87
52361;BME280;38294;42.966;1.608;2023-03-22T15:07:19;96671.34;;;24.00;25.34
52361;BME280;38294;42.966;1.608;2023-03-22T15:09:45;96679.94;;;24.15;25.74
52361;BME280;38294;42.966;1.608;2023-03-22T15:12:12;96664.69;;;24.07;25.67
52361;BME280;38294;42.966;1.608;2023-03-22T15:14:38;96668.19;;;23.89;26.09
52361;BME280;38294;42.966;1.608;2023-03-22T15:17:05;96676.38;;;24.24;25.55
52361;BME280;38294;42.966;1.608;2023-03-22T15:19:39;96684.09;;;24.11;26.15
52361;BME280;38294;42.966;1.608;2023-03-22T15:22:17;96679.19;;;23.84;26.50
52361;BME280;38294;42.966;1.608;2023-03-22T15:24:57;96682.66;;;23.97;26.22
52361;BME280;38294;42.966;1.608;2023-03-22T15:27:24;96675.31;;;24.30;26.09
52361;BME280;38294;42.966;1.608;2023-03-22T15:29:53;96680.09;;;24.12;25.95
52361;BME280;38294;42.966;1.608;2023-03-22T15:32:21;96681.84;;;23.57;26.92
52361;BME280;38294;42.966;1.608;2023-03-22T15:34:48;96678.03;;;23.72;26.84
52361;BME280;38294;42.966;1.608;2023-03-22T15:37:32;96675.47;;;24.27;26.42
52361;BME280;38294;42.966;1.608;2023-03-22T15:39:59;96675.38;;;23.99;27.00
52361;BME280;38294;42.966;1.608;2023-03-22T15:42:28;96686.03;;;23.83;27.51
52361;BME280;38294;42.966;1.608;2023-03-22T15:45:00;96681.53;;;24.25;27.32
52361;BME280;38294;42.966;1.608;2023-03-22T15:50:15;96685.34;;;23.70;28.35
52361;BME280;38294;42.966;1.608;2023-03-22T15:52:53;96686.00;;;23.74;28.01
52361;BME280;38294;42.966;1.608;2023-03-22T15:55:20;96699.03;;;23.46;28.40
52361;BME280;38294;42.966;1.608;2023-03-22T15:57:55;96698.13;;;23.06;28.58
52361;BME280;38294;42.966;1.608;2023-03-22T16:00:32;96704.69;;;23.12;28.97
52361;BME280;38294;42.966;1.608;2023-03-22T16:05:39;96705.09;;;22.88;28.51
52361;BME280;38294;42.966;1.608;2023-03-22T16:08:07;96709.97;;;22.75;28.61
52361;BME280;38294;42.966;1.608;2023-03-22T16:10:34;96712.13;;;22.93;28.95
52361;BME280;38294;42.966;1.608;2023-03-22T16:13:01;96715.66;;;22.72;29.62
52361;BME280;38294;42.966;1.608;2023-03-22T16:15:33;96731.34;;;22.44;31.04
52361;BME280;38294;42.966;1.608;2023-03-22T16:17:59;96730.47;;;22.34;31.98
52361;BME280;38294;42.966;1.608;2023-03-22T16:20:27;96726.84;;;22.72;32.30
52361;BME280;38294;42.966;1.608;2023-03-22T16:23:00;96730.13;;;22.45;33.48
52361;BME280;38294;42.966;1.608;2023-03-22T16:25:26;96726.03;;;22.12;35.43
52361;BME280;38294;42.966;1.608;2023-03-22T16:27:52;96725.47;;;22.04;36.06
52361;BME280;38294;42.966;1.608;2023-03-22T16:30:18;96731.38;;;22.06;36.91
52361;BME280;38294;42.966;1.608;2023-03-22T16:32:45;96730.81;;;22.11;37.23
52361;BME280;38294;42.966;1.608;2023-03-22T16:35:19;96734.19;;;22.06;37.52
52361;BME280;38294;42.966;1.608;2023-03-22T16:37:46;96745.50;;;21.74;38.08
52361;BME280;38294;42.966;1.608;2023-03-22T16:40:35;96745.06;;;21.88;38.20
52361;BME280;38294;42.966;1.608;2023-03-22T16:43:01;96747.13;;;21.46;38.62
52361;BME280;38294;42.966;1.608;2023-03-22T16:45:32;96743.91;;;21.60;38.61
52361;BME280;38294;42.966;1.608;2023-03-22T16:47:58;96746.47;;;21.42;38.85
52361;BME280;38294;42.966;1.608;2023-03-22T16:50:27;96754.66;;;21.74;38.35
52361;BME280;38294;42.966;1.608;2023-03-22T16:52:59;96764.03;;;21.39;38.62
52361;BME280;38294;42.966;1.608;2023-03-22T16:55:27;96760.94;;;21.50;38.84
52361;BME280;38294;42.966;1.608;2023-03-22T16:57:56;96767.00;;;21.61;38.62
52361;BME280;38294;42.966;1.608;2023-03-22T17:00:22;96775.94;;;21.27;39.31
52361;BME280;38294;42.966;1.608;2023-03-22T17:02:57;96776.56;;;21.47;39.16
52361;BME280;38294;42.966;1.608;2023-03-22T17:05:28;96777.06;;;21.71;38.56
52361;BME280;38294;42.966;1.608;2023-03-22T17:07:56;96781.78;;;21.86;38.54
52361;BME280;38294;42.966;1.608;2023-03-22T17:10:23;96782.75;;;21.80;38.92
52361;BME280;38294;42.966;1.608;2023-03-22T17:12:49;96776.75;;;21.11;39.63
52361;BME280;38294;42.966;1.608;2023-03-22T17:15:31;96772.66;;;21.44;39.56
52361;BME280;38294;42.966;1.608;2023-03-22T17:18:00;96774.56;;;21.19;39.89
52361;BME280;38294;42.966;1.608;2023-03-22T17:20:27;96767.97;;;21.41;39.74
52361;BME280;38294;42.966;1.608;2023-03-22T17:22:55;96776.84;;;21.36;39.83
52361;BME280;38294;42.966;1.608;2023-03-22T17:25:24;96775.97;;;21.39;39.91
52361;BME280;38294;42.966;1.608;2023-03-22T17:27:52;96778.34;;;21.12;40.28
52361;BME280;38294;42.966;1.608;2023-03-22T17:30:19;96774.25;;;20.84;40.74
52361;BME280;38294;42.966;1.608;2023-03-22T17:32:44;96782.59;;;20.84;40.91
52361;BME280;38294;42.966;1.608;2023-03-22T17:35:15;96786.78;;;20.92;41.15
52361;BME280;38294;42.966;1.608;2023-03-22T17:37:41;96779.66;;;20.75;41.44
52361;BME280;38294;42.966;1.608;2023-03-22T17:40:11;96786.56;;;20.71;41.42
52361;BME280;38294;42.966;1.608;2023-03-22T17:42:38;96779.19;;;20.48;41.91
52361;BME280;38294;42.966;1.608;2023-03-22T17:45:06;96791.06;;;20.49;42.37
52361;BME280;38294;42.966;1.608;2023-03-22T17:47:32;96794.75;;;20.10;42.90
52361;BME280;38294;42.966;1.608;2023-03-22T17:49:58;96794.59;;;20.17;43.11